Terminal Aerodrome Forecast
Issued by NWS Springfield, MO

Home | Current Version | Previous Version | Text Only | Print | Product List | Glossary On
Versions: 1 2 3 4 5 6 7 8 9 10 11 12
535
FTUS43 KSGF 270520
TAFSGF
TAF
KSGF 270520Z 2706/2806 16005KT P6SM BKN200
     FM271100 16004KT P6SM BKN150
     FM271400 21004KT P6SM BKN200 PROB30 2718/2719 4SM -TSRA
      OVC040CB
     FM272100 15006KT P6SM BKN200 PROB30 2721/2722 4SM -TSRA
      OVC040CB=

USA.gov is the U.S. government's official web portal to all federal, state and local government web resources and services.